Time;durP1;ratioP1;P1;durP2;ratioP2;P2;SDS_P1;SDS_P2;PMS_P1;PMS_P2;Temp;Humidity;BMP_temperature;BMP_pressure;BME280_temperature;BME280_humidity;BME280_pressure;Samples;Min_cycle;Max_cycle;Signal;HPM_P1;HPM_P2
2021/12/01 00:02:18;;;;;;;3.80;3.40;;;;;;;;;;5260678;28;20024;-79
2021/12/01 00:04:49;;;;;;;3.37;3.07;;;;;;;;;;5261329;28;20021;-78
2021/12/01 00:07:20;;;;;;;3.03;2.73;;;;;;;;;;5260328;28;20044;-79
2021/12/01 00:09:52;;;;;;;3.47;3.17;;;;;;;;;;5260348;28;20104;-79
2021/12/01 00:12:23;;;;;;;3.57;3.27;;;;;;;;;;5261143;28;20024;-78
2021/12/01 00:15:05;;;;;;;4.57;2.67;;;;;;;;;;5261969;28;20108;-79
2021/12/01 00:17:36;;;;;;;4.00;3.33;;;;;;;;;;5261935;28;20032;-77
2021/12/01 00:20:10;;;;;;;3.20;2.90;;;;;;;;;;5245812;28;20652;-78
2021/12/01 00:22:42;;;;;;;5.00;3.20;;;;;;;;;;5223215;28;20026;-79
2021/12/01 00:25:16;;;;;;;3.20;2.90;;;;;;;;;;5241575;28;20088;-77
2021/12/01 00:27:47;;;;;;;3.60;3.30;;;;;;;;;;5241250;28;20100;-77
2021/12/01 00:30:19;;;;;;;3.53;2.80;;;;;;;;;;5222853;28;20109;-77
2021/12/01 00:32:54;;;;;;;2.97;2.67;;;;;;;;;;5240418;28;20454;-79
2021/12/01 00:35:27;;;;;;;2.73;2.40;;;;;;;;;;5240810;28;20041;-78
2021/12/01 00:37:58;;;;;;;3.97;2.70;;;;;;;;;;5241274;28;20373;-79
2021/12/01 00:40:30;;;;;;;3.27;2.67;;;;;;;;;;5241097;28;20028;-77
2021/12/01 00:43:02;;;;;;;3.57;2.83;;;;;;;;;;5241295;28;20017;-79
2021/12/01 00:45:33;;;;;;;3.07;2.80;;;;;;;;;;5223480;28;20083;-79
2021/12/01 00:48:04;;;;;;;3.40;3.10;;;;;;;;;;5239778;28;20477;-79
2021/12/01 00:50:35;;;;;;;4.10;2.93;;;;;;;;;;5230279;28;20025;-78
2021/12/01 00:53:11;;;;;;;3.93;3.53;;;;;;;;;;5260539;28;20028;-79
2021/12/01 00:55:43;;;;;;;3.83;2.87;;;;;;;;;;5260007;28;20072;-78
2021/12/01 00:58:15;;;;;;;4.63;2.83;;;;;;;;;;5259821;28;20081;-80
2021/12/01 01:00:49;;;;;;;4.83;3.63;;;;;;;;;;5259472;28;20009;-79
2021/12/01 01:03:20;;;;;;;2.90;2.60;;;;;;;;;;5241168;28;20020;-79
2021/12/01 01:05:51;;;;;;;4.20;2.80;;;;;;;;;;5259050;28;20456;-79
2021/12/01 01:08:22;;;;;;;5.40;2.87;;;;;;;;;;5257589;28;20021;-79
2021/12/01 01:16:24;;;;;;;5.30;3.80;;;;;;;;;;5236944;28;20030;-78
2021/12/01 01:18:57;;;;;;;4.60;3.77;;;;;;;;;;5237279;28;20033;-79
2021/12/01 01:21:31;;;;;;;5.60;4.90;;;;;;;;;;5219035;28;20022;-77
2021/12/01 01:24:03;;;;;;;6.70;5.57;;;;;;;;;;5237118;28;20013;-79
2021/12/01 01:26:35;;;;;;;4.57;4.17;;;;;;;;;;5219069;28;20461;-79
2021/12/01 01:29:06;;;;;;;5.63;5.03;;;;;;;;;;5237218;28;20049;-79
2021/12/01 01:31:38;;;;;;;7.10;5.07;;;;;;;;;;5235985;28;20095;-79
2021/12/01 01:34:09;;;;;;;5.70;5.20;;;;;;;;;;5236899;28;20381;-79
2021/12/01 01:36:40;;;;;;;6.77;4.93;;;;;;;;;;5236776;28;20600;-79
2021/12/01 01:39:11;;;;;;;5.37;4.87;;;;;;;;;;5236670;28;20021;-79
2021/12/01 01:41:43;;;;;;;5.00;4.60;;;;;;;;;;5236875;28;20013;-79
2021/12/01 01:44:14;;;;;;;5.57;4.57;;;;;;;;;;5236604;28;20096;-80
2021/12/01 01:46:45;;;;;;;5.73;4.67;;;;;;;;;;5235414;28;20412;-79
2021/12/01 01:49:24;;;;;;;5.13;4.33;;;;;;;;;;5236493;28;20364;-79
2021/12/01 01:51:56;;;;;;;5.67;4.47;;;;;;;;;;5234944;28;20109;-79
2021/12/01 01:54:27;;;;;;;4.70;4.23;;;;;;;;;;5236176;28;20112;-79
2021/12/01 01:56:58;;;;;;;7.20;4.13;;;;;;;;;;5236104;28;20029;-80
2021/12/01 01:59:29;;;;;;;4.43;3.90;;;;;;;;;;5235888;28;20457;-79
2021/12/01 02:02:01;;;;;;;4.27;3.83;;;;;;;;;;5236133;28;20075;-78
2021/12/01 02:04:33;;;;;;;5.30;4.00;;;;;;;;;;5234547;28;20021;-79
2021/12/01 02:07:05;;;;;;;5.63;3.77;;;;;;;;;;5235975;28;20014;-78
2021/12/01 02:09:36;;;;;;;4.23;3.80;;;;;;;;;;5248221;28;20016;-79
2021/12/01 02:12:07;;;;;;;4.10;3.30;;;;;;;;;;5277345;28;20023;-79
2021/12/01 02:14:38;;;;;;;4.27;3.13;;;;;;;;;;5277104;28;20036;-78
2021/12/01 02:17:10;;;;;;;4.03;3.63;;;;;;;;;;5277124;28;20379;-80
2021/12/01 02:19:41;;;;;;;5.77;3.30;;;;;;;;;;5277448;28;20021;-80
2021/12/01 02:22:13;;;;;;;3.43;3.10;;;;;;;;;;5259037;28;20017;-80
2021/12/01 02:24:47;;;;;;;5.63;2.70;;;;;;;;;;5258701;28;20096;-79
2021/12/01 02:27:18;;;;;;;2.20;2.00;;;;;;;;;;5258386;28;20016;-80
2021/12/01 02:29:52;;;;;;;3.20;1.90;;;;;;;;;;5258431;28;20411;-79
2021/12/01 02:32:24;;;;;;;2.25;2.05;;;;;;;;;;5276095;28;20472;-80
2021/12/01 02:34:55;;;;;;;3.30;2.30;;;;;;;;;;5259362;28;20016;-79
2021/12/01 02:37:27;;;;;;;2.33;1.53;;;;;;;;;;5276396;28;20025;-79
2021/12/01 02:39:58;;;;;;;3.07;2.07;;;;;;;;;;5258738;28;20031;-79
2021/12/01 02:42:29;;;;;;;3.80;1.60;;;;;;;;;;5276476;28;20012;-80
2021/12/01 02:45:01;;;;;;;2.20;1.80;;;;;;;;;;5276099;28;20013;-79
2021/12/01 02:47:32;;;;;;;3.27;1.60;;;;;;;;;;5275443;28;20075;-78
2021/12/01 02:50:03;;;;;;;4.20;1.87;;;;;;;;;;5258276;28;20021;-78
2021/12/01 02:52:35;;;;;;;2.60;1.97;;;;;;;;;;5275731;28;20023;-78
2021/12/01 02:55:08;;;;;;;3.43;2.70;;;;;;;;;;5276255;28;20036;-79
2021/12/01 02:57:40;;;;;;;4.53;2.20;;;;;;;;;;5276009;28;20103;-79
2021/12/01 03:00:12;;;;;;;3.17;2.70;;;;;;;;;;5258030;28;20036;-78
2021/12/01 03:02:44;;;;;;;3.07;2.27;;;;;;;;;;5257471;28;20063;-79
2021/12/01 03:05:16;;;;;;;3.57;2.70;;;;;;;;;;5275911;28;20062;-78
2021/12/01 03:07:47;;;;;;;3.77;2.93;;;;;;;;;;5257795;28;20043;-78
2021/12/01 03:10:18;;;;;;;4.63;3.23;;;;;;;;;;5275274;28;20048;-78
2021/12/01 03:12:50;;;;;;;4.60;3.17;;;;;;;;;;5275999;28;20146;-78
2021/12/01 03:15:21;;;;;;;4.83;3.20;;;;;;;;;;5275803;28;20020;-78
2021/12/01 03:17:52;;;;;;;3.63;3.03;;;;;;;;;;5275484;28;20128;-79
2021/12/01 03:20:23;;;;;;;3.40;2.53;;;;;;;;;;5275618;28;20460;-79
2021/12/01 03:22:55;;;;;;;4.63;3.10;;;;;;;;;;5257844;28;20115;-79
2021/12/01 03:25:27;;;;;;;4.57;3.33;;;;;;;;;;5257594;28;20027;-79
2021/12/01 03:27:58;;;;;;;3.53;2.60;;;;;;;;;;5258018;28;20121;-80
2021/12/01 03:30:33;;;;;;;3.30;2.47;;;;;;;;;;5257471;28;20095;-79
2021/12/01 03:33:06;;;;;;;3.77;3.07;;;;;;;;;;5279192;28;20116;-78
2021/12/01 03:35:39;;;;;;;3.47;2.97;;;;;;;;;;5280124;28;20016;-78
2021/12/01 03:38:10;;;;;;;5.50;3.00;;;;;;;;;;5280473;28;20024;-78
2021/12/01 03:40:42;;;;;;;5.13;3.23;;;;;;;;;;5280204;28;20016;-79
2021/12/01 03:43:13;;;;;;;5.07;3.20;;;;;;;;;;5280453;28;20013;-79
2021/12/01 03:45:45;;;;;;;3.50;3.20;;;;;;;;;;5280530;28;20494;-79
2021/12/01 03:48:16;;;;;;;4.00;3.20;;;;;;;;;;5279403;28;20012;-79
2021/12/01 03:50:49;;;;;;;3.57;3.03;;;;;;;;;;5279418;28;20016;-80
2021/12/01 03:53:21;;;;;;;5.40;2.90;;;;;;;;;;5279369;28;20480;-78
2021/12/01 03:55:53;;;;;;;3.50;3.00;;;;;;;;;;5261377;28;20044;-79
2021/12/01 03:58:24;;;;;;;3.80;3.40;;;;;;;;;;5260630;28;20650;-79
2021/12/01 04:00:55;;;;;;;5.77;4.27;;;;;;;;;;5278687;28;20013;-79
2021/12/01 04:03:26;;;;;;;4.00;3.60;;;;;;;;;;5261454;28;20017;-80
2021/12/01 04:05:57;;;;;;;3.97;3.60;;;;;;;;;;5279067;28;20021;-78
2021/12/01 04:08:29;;;;;;;7.73;3.83;;;;;;;;;;5279050;28;20032;-78
2021/12/01 04:11:00;;;;;;;4.23;3.83;;;;;;;;;;5261481;28;20044;-78
2021/12/01 04:13:32;;;;;;;5.40;3.63;;;;;;;;;;5278883;28;20124;-78
2021/12/01 04:16:04;;;;;;;4.30;3.30;;;;;;;;;;5260536;28;20055;-78
2021/12/01 04:18:35;;;;;;;4.70;3.27;;;;;;;;;;5260479;28;20513;-78
2021/12/01 04:21:06;;;;;;;2.67;2.47;;;;;;;;;;5260704;28;20456;-78
2021/12/01 04:23:38;;;;;;;5.57;3.17;;;;;;;;;;5278974;28;20486;-78
2021/12/01 04:26:13;;;;;;;4.40;2.73;;;;;;;;;;5278877;28;20023;-78
2021/12/01 04:28:45;;;;;;;3.57;2.60;;;;;;;;;;5260718;28;20028;-78
2021/12/01 04:31:16;;;;;;;2.80;2.43;;;;;;;;;;5277742;28;20388;-78
2021/12/01 04:33:48;;;;;;;2.43;2.07;;;;;;;;;;5278592;28;20035;-77
2021/12/01 04:36:20;;;;;;;4.80;2.40;;;;;;;;;;5278091;28;20074;-77
2021/12/01 04:38:52;;;;;;;7.33;3.37;;;;;;;;;;5278670;28;20019;-77
2021/12/01 04:41:24;;;;;;;5.97;2.53;;;;;;;;;;5278375;28;20459;-77
2021/12/01 04:43:59;;;;;;;2.93;2.23;;;;;;;;;;5277619;28;20020;-77
2021/12/01 04:46:34;;;;;;;3.50;2.03;;;;;;;;;;5277412;28;20020;-78
2021/12/01 04:49:06;;;;;;;2.93;2.20;;;;;;;;;;5278245;28;20012;-78
2021/12/01 04:51:39;;;;;;;3.80;2.03;;;;;;;;;;5278021;28;20666;-78
2021/12/01 04:54:11;;;;;;;2.60;2.00;;;;;;;;;;5278302;28;20098;-78
2021/12/01 04:56:42;;;;;;;3.30;1.77;;;;;;;;;;5278185;28;20072;-77
2021/12/01 04:59:14;;;;;;;2.43;1.80;;;;;;;;;;5260458;28;20387;-77
2021/12/01 05:01:47;;;;;;;6.13;2.43;;;;;;;;;;5277055;28;20041;-78
2021/12/01 05:04:18;;;;;;;5.57;2.37;;;;;;;;;;5260309;28;20534;-78
2021/12/01 05:06:49;;;;;;;3.03;2.10;;;;;;;;;;5277912;28;20056;-77
2021/12/01 05:09:21;;;;;;;3.00;2.03;;;;;;;;;;5260057;28;20016;-78
2021/12/01 05:11:52;;;;;;;3.10;2.40;;;;;;;;;;5278397;28;20015;-79
2021/12/01 05:14:25;;;;;;;5.43;2.30;;;;;;;;;;5277982;28;20607;-79
2021/12/01 05:16:56;;;;;;;2.53;2.17;;;;;;;;;;5277172;28;20512;-79
2021/12/01 05:19:28;;;;;;;2.13;1.60;;;;;;;;;;5277198;28;20158;-78
2021/12/01 05:21:59;;;;;;;3.33;1.90;;;;;;;;;;5278005;28;20016;-79
2021/12/01 05:24:30;;;;;;;3.53;1.80;;;;;;;;;;5277188;28;20023;-78
2021/12/01 05:27:02;;;;;;;2.10;1.40;;;;;;;;;;5278132;28;20087;-79
2021/12/01 05:29:33;;;;;;;4.47;1.87;;;;;;;;;;5277432;28;20021;-79
2021/12/01 05:32:04;;;;;;;2.40;1.70;;;;;;;;;;5276777;28;20126;-79
2021/12/01 05:34:36;;;;;;;3.87;1.93;;;;;;;;;;5259874;28;20021;-79
2021/12/01 05:37:07;;;;;;;1.80;1.37;;;;;;;;;;5277670;28;20020;-78
2021/12/01 05:39:41;;;;;;;3.67;1.60;;;;;;;;;;5255977;28;20032;-78
2021/12/01 05:42:13;;;;;;;3.15;1.45;;;;;;;;;;5234658;28;20449;-78
2021/12/01 05:44:44;;;;;;;1.70;1.20;;;;;;;;;;5235500;28;20010;-79
2021/12/01 05:47:15;;;;;;;1.73;1.17;;;;;;;;;;5234851;28;20384;-79
2021/12/01 05:49:46;;;;;;;2.00;1.30;;;;;;;;;;5235411;28;20071;-79
2021/12/01 05:52:18;;;;;;;1.40;1.13;;;;;;;;;;5234176;28;20021;-77
2021/12/01 05:54:51;;;;;;;2.43;1.10;;;;;;;;;;5235056;28;20048;-79
2021/12/01 05:57:23;;;;;;;1.70;1.10;;;;;;;;;;5235387;28;20025;-79
2021/12/01 05:59:54;;;;;;;1.70;0.73;;;;;;;;;;5217817;28;20024;-78
2021/12/01 06:02:26;;;;;;;4.47;1.13;;;;;;;;;;5252311;28;20013;-79
2021/12/01 06:04:57;;;;;;;1.60;1.10;;;;;;;;;;5256366;28;20049;-78
2021/12/01 06:07:29;;;;;;;1.80;0.90;;;;;;;;;;5255712;28;20102;-79
2021/12/01 06:10:02;;;;;;;1.40;0.83;;;;;;;;;;5255900;28;20025;-79
2021/12/01 06:12:33;;;;;;;2.03;0.87;;;;;;;;;;5255845;28;20392;-78
2021/12/01 06:15:07;;;;;;;1.13;0.80;;;;;;;;;;5255668;28;20025;-79
2021/12/01 06:17:38;;;;;;;2.57;1.20;;;;;;;;;;5253927;28;20419;-79
2021/12/01 06:20:09;;;;;;;0.90;0.73;;;;;;;;;;5255630;28;20298;-80
2021/12/01 06:22:41;;;;;;;1.30;1.00;;;;;;;;;;5255022;28;20104;-79
2021/12/01 06:25:13;;;;;;;3.80;1.00;;;;;;;;;;5237600;28;20082;-78
2021/12/01 06:27:44;;;;;;;2.27;1.03;;;;;;;;;;5255052;28;20058;-78
2021/12/01 06:30:15;;;;;;;3.80;1.20;;;;;;;;;;5237601;28;20087;-79
2021/12/01 06:32:47;;;;;;;1.30;0.80;;;;;;;;;;5254334;28;20377;-80
2021/12/01 06:35:19;;;;;;;3.83;0.90;;;;;;;;;;5236870;28;20037;-79
2021/12/01 06:37:50;;;;;;;1.37;0.80;;;;;;;;;;5253054;28;20016;-79
2021/12/01 06:40:22;;;;;;;1.10;0.90;;;;;;;;;;5252678;28;20009;-80
2021/12/01 06:42:53;;;;;;;2.23;1.00;;;;;;;;;;5255855;28;20025;-81
2021/12/01 06:45:25;;;;;;;2.63;0.80;;;;;;;;;;5254418;28;20103;-79
2021/12/01 06:47:56;;;;;;;1.50;1.00;;;;;;;;;;5238183;28;20020;-79
2021/12/01 06:50:27;;;;;;;2.27;1.10;;;;;;;;;;5235941;28;20354;-78
2021/12/01 06:52:59;;;;;;;2.80;1.00;;;;;;;;;;5255335;28;20086;-79
2021/12/01 06:55:30;;;;;;;2.00;1.10;;;;;;;;;;5253186;28;20084;-80
2021/12/01 06:58:01;;;;;;;1.63;1.00;;;;;;;;;;5255208;28;20024;-80
2021/12/01 07:00:32;;;;;;;2.57;1.20;;;;;;;;;;5254363;28;20027;-81
2021/12/01 07:03:04;;;;;;;2.57;1.07;;;;;;;;;;5237596;28;20025;-81
2021/12/01 07:05:36;;;;;;;1.60;0.90;;;;;;;;;;5254280;28;20013;-81
2021/12/01 07:08:07;;;;;;;1.70;1.10;;;;;;;;;;5255645;28;20594;-80
2021/12/01 07:10:38;;;;;;;2.03;1.60;;;;;;;;;;5254969;28;20017;-81
2021/12/01 07:13:10;;;;;;;1.80;1.20;;;;;;;;;;5255628;28;20025;-81
2021/12/01 07:15:41;;;;;;;3.13;1.47;;;;;;;;;;5253851;28;20017;-80
2021/12/01 07:18:12;;;;;;;2.00;1.70;;;;;;;;;;5255135;28;20028;-80
2021/12/01 07:20:45;;;;;;;1.97;1.43;;;;;;;;;;5254724;28;20031;-80
2021/12/01 07:23:16;;;;;;;2.63;2.17;;;;;;;;;;5237067;28;20013;-80
2021/12/01 07:25:50;;;;;;;2.30;2.03;;;;;;;;;;5254947;28;20472;-79
2021/12/01 07:28:21;;;;;;;2.70;1.90;;;;;;;;;;5254132;28;20021;-79
2021/12/01 07:30:59;;;;;;;3.30;2.27;;;;;;;;;;5251190;28;20071;-79
2021/12/01 07:33:30;;;;;;;2.57;2.27;;;;;;;;;;5254445;28;20017;-79
2021/12/01 07:36:01;;;;;;;2.43;2.17;;;;;;;;;;5254232;28;20017;-79
2021/12/01 07:38:33;;;;;;;3.17;2.03;;;;;;;;;;5253442;28;20017;-78
2021/12/01 07:41:04;;;;;;;2.83;2.10;;;;;;;;;;5254424;28;20471;-80
2021/12/01 07:43:35;;;;;;;4.37;3.00;;;;;;;;;;5254712;28;20407;-80
2021/12/01 07:46:06;;;;;;;5.67;3.57;;;;;;;;;;5253217;28;20021;-79
2021/12/01 07:48:38;;;;;;;3.00;2.60;;;;;;;;;;5253476;28;20675;-79
2021/12/01 07:51:09;;;;;;;3.60;2.63;;;;;;;;;;5253662;28;20021;-80
2021/12/01 07:53:40;;;;;;;3.17;2.87;;;;;;;;;;5253691;28;20439;-79
2021/12/01 07:56:12;;;;;;;4.73;2.57;;;;;;;;;;5252974;28;20037;-79
2021/12/01 07:58:43;;;;;;;5.17;3.40;;;;;;;;;;5253819;28;20021;-79
2021/12/01 08:01:14;;;;;;;4.67;3.10;;;;;;;;;;5249626;28;20144;-80
2021/12/01 08:03:46;;;;;;;3.90;2.33;;;;;;;;;;5246632;28;20013;-83
2021/12/01 08:06:17;;;;;;;3.47;2.47;;;;;;;;;;5254624;28;20017;-83
2021/12/01 08:08:48;;;;;;;5.20;2.87;;;;;;;;;;5244321;28;20028;-82
2021/12/01 08:11:19;;;;;;;2.90;2.60;;;;;;;;;;5253403;28;20456;-81
2021/12/01 08:13:51;;;;;;;5.67;3.00;;;;;;;;;;5256336;28;20093;-80
2021/12/01 08:16:22;;;;;;;3.33;2.40;;;;;;;;;;5255582;28;20044;-80
2021/12/01 08:18:56;;;;;;;3.60;3.30;;;;;;;;;;5257877;28;20017;-81
2021/12/01 08:21:27;;;;;;;3.15;2.72;;;;;;;;;;5240517;28;20017;-80
2021/12/01 08:23:58;;;;;;;7.07;3.30;;;;;;;;;;5260412;28;20083;-81
2021/12/01 08:26:30;;;;;;;3.63;3.33;;;;;;;;;;5260001;28;20029;-80
2021/12/01 08:29:01;;;;;;;6.27;3.37;;;;;;;;;;5257933;28;20074;-80
2021/12/01 08:31:32;;;;;;;4.10;3.20;;;;;;;;;;5256677;28;20013;-83
2021/12/01 08:34:04;;;;;;;5.20;2.83;;;;;;;;;;5259360;28;20017;-82
2021/12/01 08:36:35;;;;;;;5.00;2.90;;;;;;;;;;5258321;28;20580;-80
2021/12/01 08:39:06;;;;;;;2.30;2.00;;;;;;;;;;5259154;28;20376;-83
2021/12/01 08:41:37;;;;;;;3.40;2.57;;;;;;;;;;5259945;28;20029;-83
2021/12/01 08:44:10;;;;;;;2.87;2.57;;;;;;;;;;5261572;28;20001;-82
2021/12/01 08:47:07;;;;;;;5.87;2.17;;;;;;;;;;5260380;28;20479;-82
2021/12/01 08:49:39;;;;;;;13.93;2.17;;;;;;;;;;5260159;28;20520;-82
2021/12/01 08:52:22;;;;;;;2.47;2.20;;;;;;;;;;5263151;28;20020;-83
2021/12/01 08:54:54;;;;;;;2.83;2.27;;;;;;;;;;5247943;28;20059;-82
2021/12/01 08:57:26;;;;;;;1.93;1.60;;;;;;;;;;5274009;28;20024;-83
2021/12/01 08:59:57;;;;;;;4.47;2.23;;;;;;;;;;5244223;28;20102;-82
2021/12/01 09:02:28;;;;;;;2.53;1.87;;;;;;;;;;5267315;28;20020;-83
2021/12/01 09:04:59;;;;;;;2.57;2.00;;;;;;;;;;5271984;28;20011;-83
2021/12/01 09:07:30;;;;;;;2.83;1.70;;;;;;;;;;5269076;28;20433;-83
2021/12/01 09:10:02;;;;;;;3.20;1.60;;;;;;;;;;5264790;28;20140;-82
2021/12/01 09:12:35;;;;;;;3.27;1.50;;;;;;;;;;5266913;28;20340;-80
2021/12/01 09:15:07;;;;;;;2.20;1.73;;;;;;;;;;5259523;28;20056;-80
2021/12/01 09:17:38;;;;;;;1.70;1.23;;;;;;;;;;5253025;28;20053;-80
2021/12/01 09:20:09;;;;;;;2.73;1.40;;;;;;;;;;5259943;28;20112;-81
2021/12/01 09:22:41;;;;;;;2.20;1.40;;;;;;;;;;5256207;28;20021;-82
2021/12/01 09:25:12;;;;;;;2.20;1.23;;;;;;;;;;5268734;28;20070;-81
2021/12/01 09:27:45;;;;;;;6.63;1.73;;;;;;;;;;5240257;28;20492;-80
2021/12/01 09:30:17;;;;;;;3.03;1.50;;;;;;;;;;5258689;28;20017;-80
2021/12/01 09:32:48;;;;;;;3.47;1.50;;;;;;;;;;5254750;28;20019;-80
2021/12/01 09:35:20;;;;;;;4.30;1.90;;;;;;;;;;5266739;28;20013;-81
2021/12/01 09:37:51;;;;;;;2.70;1.60;;;;;;;;;;5264103;28;20091;-81
2021/12/01 09:40:23;;;;;;;4.33;1.70;;;;;;;;;;5235254;28;20898;-80
2021/12/01 09:42:55;;;;;;;5.00;1.83;;;;;;;;;;5255372;28;20052;-80
2021/12/01 09:45:27;;;;;;;3.13;1.63;;;;;;;;;;5262829;28;20532;-80
2021/12/01 09:47:58;;;;;;;7.03;1.90;;;;;;;;;;5263325;28;20148;-81
2021/12/01 09:50:29;;;;;;;5.10;1.70;;;;;;;;;;5267836;28;20031;-80
2021/12/01 09:53:00;;;;;;;4.27;2.17;;;;;;;;;;5268853;28;20110;-80
2021/12/01 09:55:32;;;;;;;6.23;1.93;;;;;;;;;;5259383;28;20655;-81
2021/12/01 09:58:05;;;;;;;8.03;2.63;;;;;;;;;;5255107;28;20032;-81
2021/12/01 10:00:38;;;;;;;7.70;2.27;;;;;;;;;;5253691;28;20021;-79
2021/12/01 10:03:10;;;;;;;6.23;2.23;;;;;;;;;;5252752;28;20049;-80
2021/12/01 10:06:02;;;;;;;11.00;2.40;;;;;;;;;;5253847;28;20474;-80
2021/12/01 10:08:44;;;;;;;9.87;2.07;;;;;;;;;;5252767;28;20016;-83
2021/12/01 10:11:17;;;;;;;8.80;2.70;;;;;;;;;;5232800;28;20445;-80
2021/12/01 10:13:57;;;;;;;13.20;2.33;;;;;;;;;;5253368;28;20055;-80
2021/12/01 10:16:30;;;;;;;7.27;1.70;;;;;;;;;;5253419;28;20013;-80
2021/12/01 10:19:05;;;;;;;9.87;1.90;;;;;;;;;;5238454;28;20028;-80
2021/12/01 10:21:38;;;;;;;17.03;2.33;;;;;;;;;;5250513;28;20033;-80
2021/12/01 10:24:11;;;;;;;11.20;2.17;;;;;;;;;;5234501;28;20048;-80
2021/12/01 10:26:47;;;;;;;10.00;2.40;;;;;;;;;;5251783;28;20111;-80
2021/12/01 10:29:22;;;;;;;12.60;3.00;;;;;;;;;;5253895;28;20040;-81
2021/12/01 10:31:55;;;;;;;8.80;2.30;;;;;;;;;;5250954;28;20116;-79
2021/12/01 10:34:47;;;;;;;10.57;2.13;;;;;;;;;;5253098;28;20037;-80
2021/12/01 10:37:28;;;;;;;7.30;1.27;;;;;;;;;;5252699;28;20544;-78
2021/12/01 10:40:09;;;;;;;11.13;2.47;;;;;;;;;;5252588;28;20065;-78
2021/12/01 10:42:58;;;;;;;9.33;2.37;;;;;;;;;;5251043;28;20017;-79
2021/12/01 10:45:32;;;;;;;15.43;2.87;;;;;;;;;;5251441;28;20036;-79
2021/12/01 10:48:04;;;;;;;8.93;1.83;;;;;;;;;;5253562;28;20017;-78
2021/12/01 10:50:37;;;;;;;8.17;1.70;;;;;;;;;;5253620;28;20013;-78
2021/12/01 10:53:12;;;;;;;10.17;1.90;;;;;;;;;;5250352;28;20032;-78
2021/12/01 10:55:44;;;;;;;10.40;1.47;;;;;;;;;;5252978;28;20514;-78
2021/12/01 10:58:15;;;;;;;11.83;1.80;;;;;;;;;;5249630;28;20115;-78
2021/12/01 11:00:51;;;;;;;13.17;1.50;;;;;;;;;;5252490;28;20025;-79
2021/12/01 11:03:27;;;;;;;8.07;1.27;;;;;;;;;;5248660;28;20092;-78
2021/12/01 11:06:19;;;;;;;5.10;1.27;;;;;;;;;;5252982;28;20025;-78
2021/12/01 11:08:57;;;;;;;6.10;1.13;;;;;;;;;;5253267;28;20465;-78
2021/12/01 11:11:43;;;;;;;5.40;1.27;;;;;;;;;;5248885;28;20400;-78
2021/12/01 11:14:16;;;;;;;8.53;1.87;;;;;;;;;;5251613;28;20021;-78
2021/12/01 11:16:47;;;;;;;6.77;1.50;;;;;;;;;;5250524;28;20013;-78
2021/12/01 11:19:30;;;;;;;11.83;2.20;;;;;;;;;;5234128;28;20013;-77
2021/12/01 11:22:20;;;;;;;6.33;1.00;;;;;;;;;;5250155;28;20013;-78
2021/12/01 11:25:11;;;;;;;4.07;1.03;;;;;;;;;;5252850;28;20020;-77
2021/12/01 11:27:42;;;;;;;5.57;1.57;;;;;;;;;;5247481;28;20009;-78
2021/12/01 11:30:13;;;;;;;6.30;1.37;;;;;;;;;;5233564;28;20028;-78
2021/12/01 11:32:45;;;;;;;10.93;2.80;;;;;;;;;;5249930;28;20029;-78
2021/12/01 11:35:16;;;;;;;6.50;1.67;;;;;;;;;;5251368;28;20329;-78
2021/12/01 11:37:55;;;;;;;6.93;1.33;;;;;;;;;;5245089;28;20009;-79
2021/12/01 11:40:27;;;;;;;4.53;1.63;;;;;;;;;;5252334;28;20028;-79
2021/12/01 11:42:59;;;;;;;9.17;1.50;;;;;;;;;;5250691;28;20095;-79
2021/12/01 11:45:30;;;;;;;6.73;1.40;;;;;;;;;;5251800;28;20037;-79
2021/12/01 11:48:02;;;;;;;10.43;1.60;;;;;;;;;;5251900;28;20025;-79
2021/12/01 11:50:35;;;;;;;11.03;2.07;;;;;;;;;;5252392;28;20568;-79
2021/12/01 11:53:20;;;;;;;6.40;1.37;;;;;;;;;;5253083;28;20384;-79
2021/12/01 11:55:59;;;;;;;9.43;2.53;;;;;;;;;;5256595;28;20106;-78
2021/12/01 11:58:47;;;;;;;9.37;2.70;;;;;;;;;;5256581;28;20477;-78
2021/12/01 12:01:21;;;;;;;8.73;2.87;;;;;;;;;;5254297;28;20028;-78
2021/12/01 12:03:59;;;;;;;6.85;2.05;;;;;;;;;;5255567;28;20168;-79
2021/12/01 12:06:34;;;;;;;11.60;2.10;;;;;;;;;;5256420;28;20228;-79
2021/12/01 12:09:05;;;;;;;10.60;2.37;;;;;;;;;;5259278;28;20159;-80
2021/12/01 12:11:36;;;;;;;7.40;1.60;;;;;;;;;;5237112;28;20029;-79
2021/12/01 12:14:15;;;;;;;10.33;1.70;;;;;;;;;;5256654;28;20036;-81
2021/12/01 12:17:03;;;;;;;9.10;1.60;;;;;;;;;;5255997;28;20655;-80
2021/12/01 12:19:48;;;;;;;6.80;2.00;;;;;;;;;;5256962;28;20036;-77
2021/12/01 12:22:21;;;;;;;7.70;1.35;;;;;;;;;;5253608;28;20021;-78
2021/12/01 12:24:54;;;;;;;9.40;1.58;;;;;;;;;;5255817;28;20051;-80
2021/12/01 12:27:29;;;;;;;6.50;1.60;;;;;;;;;;5259251;28;20012;-81
2021/12/01 12:30:04;;;;;;;8.85;2.05;;;;;;;;;;5255667;28;20028;-78
2021/12/01 12:32:35;;;;;;;9.73;1.80;;;;;;;;;;5252601;28;20091;-77
2021/12/01 12:35:08;;;;;;;9.00;1.70;;;;;;;;;;5255357;28;20108;-77
2021/12/01 12:37:40;;;;;;;11.97;3.37;;;;;;;;;;5255775;28;20048;-78
2021/12/01 12:40:29;;;;;;;12.70;2.17;;;;;;;;;;5255096;28;20092;-78
2021/12/01 12:43:05;;;;;;;8.70;1.73;;;;;;;;;;5253334;28;20028;-77
2021/12/01 12:45:38;;;;;;;9.90;1.23;;;;;;;;;;5254637;28;20020;-78
2021/12/01 12:48:32;;;;;;;9.90;1.60;;;;;;;;;;5255342;28;20595;-77
2021/12/01 12:51:13;;;;;;;16.20;2.33;;;;;;;;;;5258485;28;20044;-78
2021/12/01 12:53:59;;;;;;;11.80;1.83;;;;;;;;;;5253557;28;20443;-77
2021/12/01 12:56:34;;;;;;;10.30;2.13;;;;;;;;;;5255959;28;20484;-78
2021/12/01 12:59:24;;;;;;;8.60;1.90;;;;;;;;;;5256635;28;20029;-78
2021/12/01 13:02:15;;;;;;;14.57;2.50;;;;;;;;;;5253447;28;20017;-76
2021/12/01 13:04:51;;;;;;;9.23;1.70;;;;;;;;;;5253674;28;20494;-78
2021/12/01 13:07:41;;;;;;;11.53;1.47;;;;;;;;;;5254735;28;20024;-78
2021/12/01 13:10:28;;;;;;;8.10;1.53;;;;;;;;;;5253772;28;20021;-77
2021/12/01 13:13:01;;;;;;;6.33;1.40;;;;;;;;;;5235728;28;20029;-78
2021/12/01 13:15:34;;;;;;;5.60;1.70;;;;;;;;;;5253602;28;20108;-77
2021/12/01 13:18:12;;;;;;;15.83;2.07;;;;;;;;;;5241195;28;20052;-78
2021/12/01 13:20:43;;;;;;;11.33;2.07;;;;;;;;;;5253517;28;20016;-77
2021/12/01 13:23:29;;;;;;;11.13;1.83;;;;;;;;;;5252274;28;20009;-78
2021/12/01 13:26:03;;;;;;;10.47;1.57;;;;;;;;;;5255329;28;20021;-79
2021/12/01 13:28:37;;;;;;;11.90;1.90;;;;;;;;;;5254832;28;20028;-79
2021/12/01 13:31:11;;;;;;;5.43;1.02;;;;;;;;;;5254178;28;20025;-79
2021/12/01 13:34:01;;;;;;;10.20;2.03;;;;;;;;;;5252688;28;20075;-79
2021/12/01 13:36:37;;;;;;;8.50;1.50;;;;;;;;;;5241683;28;20056;-79
2021/12/01 13:39:14;;;;;;;8.40;1.27;;;;;;;;;;5254693;28;20756;-78
2021/12/01 13:41:46;;;;;;;9.70;2.40;;;;;;;;;;5249056;28;20009;-79
2021/12/01 13:44:19;;;;;;;11.23;2.00;;;;;;;;;;5253860;28;20469;-78
2021/12/01 13:47:07;;;;;;;10.00;3.03;;;;;;;;;;5254671;28;20078;-78
2021/12/01 13:49:45;;;;;;;14.57;2.10;;;;;;;;;;5254193;28;20021;-77
2021/12/01 13:52:27;;;;;;;14.63;3.20;;;;;;;;;;5252741;28;20025;-78
2021/12/01 13:55:18;;;;;;;12.03;2.57;;;;;;;;;;5254339;28;20045;-78
2021/12/01 13:57:54;;;;;;;8.50;2.60;;;;;;;;;;5255033;28;20029;-78
2021/12/01 14:00:31;;;;;;;11.10;1.87;;;;;;;;;;5253749;28;20032;-78
2021/12/01 14:03:02;;;;;;;8.17;2.10;;;;;;;;;;5252814;28;20559;-79
2021/12/01 14:05:34;;;;;;;15.43;2.60;;;;;;;;;;5254085;28;20676;-77
2021/12/01 14:08:11;;;;;;;8.37;1.97;;;;;;;;;;5254380;28;20104;-78
2021/12/01 14:11:02;;;;;;;13.50;2.27;;;;;;;;;;5250854;28;20029;-77
2021/12/01 14:13:33;;;;;;;11.07;2.37;;;;;;;;;;5224802;28;20017;-77
2021/12/01 14:16:05;;;;;;;12.47;3.13;;;;;;;;;;5252440;28;20020;-78
2021/12/01 14:18:37;;;;;;;11.37;2.83;;;;;;;;;;5254052;28;20520;-78
2021/12/01 14:21:18;;;;;;;11.53;2.73;;;;;;;;;;5254068;28;20772;-77
2021/12/01 14:23:51;;;;;;;13.03;3.37;;;;;;;;;;5252783;28;20023;-77
2021/12/01 14:26:32;;;;;;;13.33;2.80;;;;;;;;;;5235722;28;20457;-78
2021/12/01 14:29:06;;;;;;;10.27;2.33;;;;;;;;;;5249149;28;20021;-78
2021/12/01 14:31:38;;;;;;;17.93;3.03;;;;;;;;;;5251517;28;20033;-79
2021/12/01 14:34:14;;;;;;;9.70;3.03;;;;;;;;;;5254816;28;20032;-79
2021/12/01 14:36:46;;;;;;;11.50;3.07;;;;;;;;;;5255146;28;20027;-79
2021/12/01 14:39:18;;;;;;;15.27;2.87;;;;;;;;;;5255045;28;20036;-79
2021/12/01 14:41:50;;;;;;;10.97;2.97;;;;;;;;;;5252378;28;20032;-80
2021/12/01 14:44:23;;;;;;;15.23;2.47;;;;;;;;;;5253159;28;20017;-79
2021/12/01 14:46:55;;;;;;;14.13;2.93;;;;;;;;;;5254501;28;20144;-79
2021/12/01 14:49:39;;;;;;;13.20;2.50;;;;;;;;;;5254751;28;20013;-79
2021/12/01 14:52:19;;;;;;;15.40;2.77;;;;;;;;;;5252251;28;20032;-78
2021/12/01 14:54:57;;;;;;;17.27;3.43;;;;;;;;;;5254931;28;20071;-79
2021/12/01 14:57:29;;;;;;;15.87;3.10;;;;;;;;;;5254437;28;20098;-78
2021/12/01 15:00:04;;;;;;;18.10;4.03;;;;;;;;;;5253869;28;20025;-78
2021/12/01 15:02:36;;;;;;;23.08;4.88;;;;;;;;;;5251373;28;20561;-78
2021/12/01 15:05:09;;;;;;;23.93;6.23;;;;;;;;;;5254407;28;20009;-78
2021/12/01 15:07:43;;;;;;;17.33;3.13;;;;;;;;;;5254349;28;20013;-78
2021/12/01 15:10:19;;;;;;;19.45;4.00;;;;;;;;;;5254706;28;20044;-77
2021/12/01 15:12:50;;;;;;;15.17;4.67;;;;;;;;;;5245806;28;20016;-78
2021/12/01 15:15:31;;;;;;;12.88;3.22;;;;;;;;;;5253176;28;20020;-78
2021/12/01 15:18:04;;;;;;;17.90;3.30;;;;;;;;;;5253909;28;20021;-78
2021/12/01 15:20:50;;;;;;;17.40;6.03;;;;;;;;;;5254426;28;20024;-78
2021/12/01 15:23:21;;;;;;;14.37;4.00;;;;;;;;;;5251550;28;20075;-79
2021/12/01 15:25:52;;;;;;;12.87;3.30;;;;;;;;;;5254180;28;20025;-79